Time;durP1;ratioP1;P1;durP2;ratioP2;P2;SDS_P1;SDS_P2;PMS_P1;PMS_P2;Temp;Humidity;BMP_temperature;BMP_pressure;BME280_temperature;BME280_humidity;BME280_pressure;Samples;Min_cycle;Max_cycle;Signal;HPM_P1;HPM_P2
2021/08/03 00:01:16;;;;;;;1.10;1.00;;;;;;;15.99;79.91;92595.13;4842332;29;20097;-92
2021/08/03 00:04:19;;;;;;;6.72;1.40;;;;;;;16.01;79.84;92598.25;4827058;29;20049;-91
2021/08/03 00:07:05;;;;;;;1.25;0.90;;;;;;;16.25;80.14;92633.88;4825946;29;20042;-92
2021/08/03 00:10:01;;;;;;;2.13;1.33;;;;;;;16.11;79.99;92604.25;4841618;29;20509;-93
2021/08/03 00:13:15;;;;;;;;;;;;;;;;;;;;;
2021/08/03 00:16:16;;;;;;;1.40;1.13;;;;;;;16.21;80.86;92638.22;4841712;29;20046;-92
2021/08/03 00:19:00;;;;;;;0.70;0.70;;;;;;;16.02;80.90;92601.66;4809967;29;20497;-92
2021/08/03 00:21:46;;;;;;;1.17;1.02;;;;;;;16.02;80.79;92588.44;4840381;29;20152;-91
2021/08/03 00:24:34;;;;;;;0.43;0.43;;;;;;;15.96;79.98;92582.59;4800165;29;20053;-92
2021/08/03 00:27:22;;;;;;;2.50;1.00;;;;;;;15.98;80.57;92583.00;4829528;29;20048;-93
2021/08/03 00:29:59;;;;;;;2.83;2.05;;;;;;;16.17;80.86;92616.97;4823994;29;20397;-92
2021/08/03 00:32:55;;;;;;;3.08;1.88;;;;;;;16.22;80.75;92621.31;4842511;29;20065;-92
2021/08/03 00:35:39;;;;;;;0.77;0.65;;;;;;;15.99;81.08;92587.22;4842843;29;20136;-92
2021/08/03 00:38:17;;;;;;;1.98;1.42;;;;;;;15.93;80.88;92580.56;4813103;29;20056;-92
2021/08/03 00:41:12;;;;;;;2.22;1.52;;;;;;;15.99;80.93;92589.84;4842971;29;20059;-92
2021/08/03 00:43:51;;;;;;;1.63;1.10;;;;;;;16.17;80.47;92621.47;4839116;29;20057;-92
2021/08/03 00:46:45;;;;;;;2.58;1.60;;;;;;;16.00;80.65;92586.13;4855156;29;20051;-92
2021/08/03 00:49:47;;;;;;;2.05;1.35;;;;;;;16.14;79.86;92603.63;4828020;29;20512;-91
2021/08/03 00:52:16;;;;;;;1.48;1.15;;;;;;;16.23;79.94;92612.28;4828108;29;20106;-92
2021/08/03 00:54:46;;;;;;;2.33;1.50;;;;;;;16.24;79.34;92605.91;4827856;29;20102;-92
2021/08/03 00:57:32;;;;;;;2.17;0.95;;;;;;;15.99;79.09;92576.66;4824808;29;20140;-92
2021/08/03 01:00:06;;;;;;;1.95;1.42;;;;;;;15.95;79.49;92573.09;4822555;29;20038;-94
2021/08/03 01:02:40;;;;;;;1.95;0.98;;;;;;;15.94;79.52;92566.28;4844662;29;20065;-92
2021/08/03 01:05:15;;;;;;;3.33;1.95;;;;;;;15.95;81.17;92569.69;4811499;29;20054;-94
2021/08/03 01:08:07;;;;;;;1.15;0.85;;;;;;;16.13;81.93;92596.78;4825189;29;20045;-92
2021/08/03 01:10:36;;;;;;;;;;;;;;;16.23;83.00;92617.56;4810817;29;20053;-95
2021/08/03 01:13:24;;;;;;;1.02;0.75;;;;;;;15.89;84.31;92571.72;4832239;29;19924;-93
2021/08/03 01:16:29;;;;;;;1.67;1.15;;;;;;;15.94;84.50;92600.59;4864239;29;20044;-92
2021/08/03 01:19:24;;;;;;;5.32;1.52;;;;;;;15.59;84.78;92571.63;4856718;29;20064;-94
2021/08/03 01:22:38;;;;;;;;;;;;;;;;;;;;;
2021/08/03 01:25:55;;;;;;;;;;;;;;;;;;;;;
2021/08/03 01:28:47;;;;;;;0.77;0.70;;;;;;;15.10;87.43;92552.63;4857477;29;20132;-94
2021/08/03 01:31:52;;;;;;;1.77;1.20;;;;;;;14.89;88.12;92543.81;4861184;29;20076;-94
2021/08/03 01:34:39;;;;;;;;;;;;;;;;;;;;;
2021/08/03 01:37:15;;;;;;;1.48;1.05;;;;;;;15.09;89.92;92587.22;4848481;29;20038;-93
2021/08/03 01:40:09;;;;;;;;;;;;;;;;;;;;;
2021/08/03 01:42:55;;;;;;;0.90;0.82;;;;;;;14.89;88.07;92570.19;4862247;29;20075;-93
2021/08/03 01:45:44;;;;;;;1.30;0.80;;;;;;;14.96;90.26;92610.78;4812787;29;20058;-93
2021/08/03 01:48:31;;;;;;;;;;;;;;;;;;;;;
2021/08/03 01:51:03;;;;;;;0.65;0.65;;;;;;;14.81;89.72;92568.31;4839223;29;20053;-93
2021/08/03 01:53:43;;;;;;;;;;;;;;;;;;;;;
2021/08/03 01:56:13;;;;;;;1.52;0.95;;;;;;;14.78;90.00;92588.91;4860978;29;20427;-93
2021/08/03 01:59:04;;;;;;;1.23;0.98;;;;;;;14.83;89.78;92597.75;4878566;29;20036;-95
2021/08/03 02:01:38;;;;;;;1.55;1.20;;;;;;;14.59;89.38;92556.84;4843664;29;20502;-93
2021/08/03 02:04:27;;;;;;;;;;;;;;;;;;;;;
2021/08/03 02:07:00;;;;;;;1.67;1.15;;;;;;;14.96;86.77;92610.78;4847724;29;20061;-92
2021/08/03 02:09:48;;;;;;;;;;;;;;;;;;;;;
2021/08/03 02:12:24;;;;;;;1.02;0.93;;;;;;;14.70;87.48;92568.63;4860945;29;20057;-95
2021/08/03 02:15:10;;;;;;;1.60;1.00;;;;;;;14.96;87.60;92607.38;4862474;29;20055;-91
2021/08/03 02:17:59;;;;;;;;;;;;;;;;;;;;;
2021/08/03 02:20:38;;;;;;;0.60;0.60;;;;;;;14.44;89.02;92565.91;4861082;29;20053;-94
2021/08/03 02:23:34;;;;;;;0.88;0.88;;;;;;;14.76;89.13;92611.41;4842859;29;20053;-93
2021/08/03 02:26:23;;;;;;;;;;;;;;;;;;;;;
2021/08/03 02:29:21;;;;;;;;;;;;;;;;;;;;;
2021/08/03 02:32:21;;;;;;;2.15;1.20;;;;;;;14.44;89.60;92559.88;4858392;29;20100;-93
2021/08/03 02:35:17;;;;;;;1.27;0.90;;;;;;;14.49;90.32;92580.81;4852288;29;20071;-94
2021/08/03 02:38:53;;;;;;;;;;;;;;;;;;;;;
2021/08/03 02:41:21;;;;;;;0.63;0.63;;;;;;;14.35;91.10;92609.91;4843687;29;20060;-93
2021/08/03 02:44:03;;;;;;;2.83;1.65;;;;;;;14.40;90.61;92614.25;4846386;29;20512;-93
2021/08/03 02:46:40;;;;;;;1.40;0.90;;;;;;;14.11;92.06;92557.63;4817675;29;20049;-91
2021/08/03 02:49:14;;;;;;;3.90;1.35;;;;;;;14.28;92.22;92578.75;4845717;29;20047;-93
2021/08/03 02:51:52;;;;;;;1.05;0.95;;;;;;;14.41;91.53;92594.72;4890693;29;20044;-93
2021/08/03 02:54:36;;;;;;;1.73;1.20;;;;;;;14.42;91.00;92593.66;4847763;29;20515;-93
2021/08/03 02:57:28;;;;;;;3.08;2.53;;;;;;;14.21;90.77;92546.03;4863922;29;20080;-92
2021/08/03 03:00:04;;;;;;;4.18;1.92;;;;;;;14.34;91.83;92568.84;4861587;29;20048;-95
2021/08/03 03:02:44;;;;;;;5.45;0.68;;;;;;;14.16;92.07;92560.91;4857530;29;20064;-94
2021/08/03 03:05:24;;;;;;;0.32;0.32;;;;;;;14.13;92.06;92581.78;4864591;29;20049;-92
2021/08/03 03:08:20;;;;;;;;;;;;;;;;;;;;;
2021/08/03 03:10:53;;;;;;;0.30;0.30;;;;;;;13.84;92.30;92575.19;4864294;29;20491;-94
2021/08/03 03:14:02;;;;;;;0.63;0.63;;;;;;;14.01;92.87;92618.47;4865458;29;20048;-93
2021/08/03 03:16:59;;;;;;;0.50;0.50;;;;;;;13.46;93.62;92565.09;4865050;29;20072;-93
2021/08/03 03:19:27;;;;;;;0.40;0.40;;;;;;;13.37;95.68;92603.72;4866475;29;20055;-92
2021/08/03 03:21:54;;;;;;;1.65;0.70;;;;;;;13.15;96.79;92580.84;4862967;29;20033;-91
2021/08/03 03:24:39;;;;;;;0.50;0.50;;;;;;;13.05;95.84;92560.81;4870318;29;20055;-92
2021/08/03 03:27:32;;;;;;;0.70;0.70;;;;;;;13.11;95.46;92570.13;4867322;29;20052;-94
2021/08/03 03:30:15;;;;;;;0.60;0.60;;;;;;;13.43;93.61;92618.31;4865638;29;20068;-92
2021/08/03 03:32:54;;;;;;;0.35;0.35;;;;;;;13.38;94.91;92610.53;4848459;29;20157;-93
2021/08/03 03:35:34;;;;;;;0.30;0.30;;;;;;;12.89;96.16;92589.28;4877070;29;20049;-94
2021/08/03 03:38:04;;;;;;;;;;;;;;;13.34;96.53;92659.53;4864016;29;20056;-92
2021/08/03 03:40:50;;;;;;;1.10;1.05;;;;;;;12.81;96.91;92634.66;4858126;29;19915;-92
2021/08/03 03:43:27;;;;;;;0.82;0.75;;;;;;;12.50;94.31;92603.03;4849725;29;20136;-92
2021/08/03 03:46:04;;;;;;;0.40;0.40;;;;;;;12.57;93.95;92611.25;4843760;29;20533;-93
2021/08/03 03:48:43;;;;;;;0.93;0.75;;;;;;;12.74;93.25;92630.88;4839648;29;20053;-95
2021/08/03 03:51:27;;;;;;;0.85;0.77;;;;;;;12.56;92.94;92601.03;4846384;29;20140;-92
2021/08/03 03:54:14;;;;;;;0.50;0.50;;;;;;;12.60;92.94;92602.78;4863125;29;20094;-93
2021/08/03 03:57:03;;;;;;;0.50;0.50;;;;;;;12.74;92.78;92618.50;4847211;29;20076;-92
2021/08/03 03:59:43;;;;;;;0.52;0.52;;;;;;;12.66;92.74;92600.84;4834755;29;20507;-93
2021/08/03 04:02:23;;;;;;;;;;;;;;;;;;;;;
2021/08/03 04:05:01;;;;;;;;;;;;;;;;;;;;;
2021/08/03 04:08:06;;;;;;;0.40;0.40;;;;;;;13.07;92.60;92636.72;4863522;29;20297;-93
2021/08/03 04:10:40;;;;;;;0.82;0.80;;;;;;;13.22;92.41;92643.50;4848050;29;20116;-93
2021/08/03 04:13:25;;;;;;;0.40;0.40;;;;;;;12.96;89.08;92599.38;4864615;29;20044;-93
2021/08/03 04:16:03;;;;;;;0.50;0.50;;;;;;;13.00;89.94;92595.09;4862287;29;20055;-94
2021/08/03 04:18:37;;;;;;;0.40;0.40;;;;;;;13.11;91.20;92622.69;4878140;29;20117;-93
2021/08/03 04:21:28;;;;;;;;;;;;;;;;;;;;;
2021/08/03 04:24:09;;;;;;;0.60;0.60;;;;;;;13.27;90.77;92656.53;4861508;29;20053;-94
2021/08/03 04:26:47;;;;;;;0.35;0.35;;;;;;;13.21;91.30;92647.97;4847686;29;20500;-93
2021/08/03 04:29:15;;;;;;;0.60;0.60;;;;;;;13.46;91.33;92669.50;4862847;29;20053;-92
2021/08/03 04:31:43;;;;;;;0.60;0.60;;;;;;;13.13;91.72;92619.78;4862692;29;20040;-96
2021/08/03 04:34:20;;;;;;;0.77;0.70;;;;;;;13.35;91.44;92658.44;4832390;29;20056;-93
2021/08/03 04:36:51;;;;;;;1.35;1.13;;;;;;;13.17;90.95;92622.56;4823310;29;20045;-91
2021/08/03 04:39:24;;;;;;;0.90;0.45;;;;;;;13.24;91.88;92621.09;4857216;29;20065;-94
2021/08/03 04:41:57;;;;;;;0.50;0.50;;;;;;;13.27;92.35;92628.38;4825760;29;20052;-95
2021/08/03 04:44:51;;;;;;;;;;;;;;;;;;;;;
2021/08/03 04:47:20;;;;;;;0.30;0.30;;;;;;;13.41;93.03;92641.47;4861826;29;20053;-94
2021/08/03 04:49:57;;;;;;;0.43;0.43;;;;;;;13.51;92.61;92659.66;4856510;29;20040;-94
2021/08/03 04:53:22;;;;;;;0.80;0.80;;;;;;;13.66;92.46;92679.53;4862968;29;20048;-94
2021/08/03 04:56:20;;;;;;;0.30;0.30;;;;;;;13.28;92.23;92621.28;4864231;29;20063;-94
2021/08/03 04:59:05;;;;;;;0.60;0.45;;;;;;;13.51;91.54;92659.66;4832831;29;20144;-94
2021/08/03 05:01:46;;;;;;;;;;;;;;;;;;;;;
2021/08/03 05:04:27;;;;;;;0.30;0.30;;;;;;;13.36;89.84;92641.63;4829877;29;20061;-94
2021/08/03 05:07:11;;;;;;;;;;;;;;;;;;;;;
2021/08/03 05:09:40;;;;;;;1.75;1.13;;;;;;;13.28;85.43;92629.97;4842912;29;20140;-94
2021/08/03 05:12:30;;;;;;;0.32;0.32;;;;;;;13.43;84.40;92644.59;4830953;29;20044;-95
2021/08/03 05:15:06;;;;;;;0.50;0.50;;;;;;;13.23;85.43;92637.16;4828179;29;20049;-94
2021/08/03 05:17:38;;;;;;;0.38;0.38;;;;;;;13.28;86.20;92652.84;4813464;29;20054;-94
2021/08/03 05:20:19;;;;;;;0.45;0.45;;;;;;;13.28;86.19;92637.84;4844291;29;20042;-94
2021/08/03 05:23:03;;;;;;;;;;;;;;;;;;;;;
2021/08/03 05:25:32;;;;;;;0.80;0.65;;;;;;;13.51;84.32;92661.53;4830018;29;20522;-92
2021/08/03 05:40:15;;;;;;;;;;;;;;;;;;;;;
2021/08/03 05:47:26;;;;;;;0.50;0.50;;;;;;;13.28;86.86;92637.06;4805750;29;20054;-94
2021/08/03 05:53:45;;;;;;;0.57;0.57;;;;;;;13.28;89.75;92618.66;4823546;29;20072;-93
2021/08/03 05:56:38;;;;;;;;;;;;;;;;;;;;;
2021/08/03 06:11:36;;;;;;;;;;;;;;;;;;;;;
2021/08/03 06:29:47;;;;;;;;;;;;;;;;;;;;;
2021/08/03 06:33:35;;;;;;;;;;;;;;;;;;;;;
2021/08/03 06:41:10;;;;;;;0.57;0.57;;;;;;;13.80;90.62;92671.59;4882293;29;20048;-96
2021/08/03 06:44:29;;;;;;;;;;;;;;;;;;;;;
2021/08/03 06:48:31;;;;;;;;;;;;;;;;;;;;;
2021/08/03 06:59:06;;;;;;;;;;;;;;;;;;;;;
2021/08/03 07:18:02;;;;;;;0.40;0.40;;;;;;;13.84;88.09;92674.41;4847018;29;20480;-95
2021/08/03 07:21:31;;;;;;;;;;;;;;;;;;;;;
2021/08/03 07:25:05;;;;;;;;;;;;;;;;;;;;;
2021/08/03 07:39:40;;;;;;;2.17;0.70;;;;;;;15.55;83.60;92696.56;4816457;24;20039;-78
2021/08/03 07:42:08;;;;;;;0.50;0.50;;;;;;;15.70;83.19;92713.81;4814836;29;20069;-78
2021/08/03 07:44:34;;;;;;;1.38;1.15;;;;;;;15.75;83.27;92705.75;4841875;29;20503;-77
2021/08/03 07:47:00;;;;;;;1.15;1.05;;;;;;;15.89;82.76;92708.97;4826967;29;20038;-77
2021/08/03 07:49:26;;;;;;;0.73;0.70;;;;;;;15.99;82.41;92711.31;4843140;29;20054;-78
2021/08/03 07:51:52;;;;;;;0.35;0.35;;;;;;;16.03;83.04;92704.31;4856230;29;20072;-76
2021/08/03 07:54:18;;;;;;;1.17;1.08;;;;;;;15.96;82.96;92706.66;4843664;29;20573;-78
2021/08/03 07:56:43;;;;;;;0.60;0.60;;;;;;;16.02;82.81;92721.22;4843534;29;20076;-77
2021/08/03 07:59:09;;;;;;;0.43;0.43;;;;;;;16.46;81.28;92713.22;4826982;29;20049;-78
2021/08/03 08:01:35;;;;;;;0.40;0.40;;;;;;;16.85;80.86;92714.00;4843272;29;20416;-78
2021/08/03 08:04:01;;;;;;;1.13;0.70;;;;;;;16.95;80.17;92707.56;4828321;29;20603;-79
2021/08/03 08:06:27;;;;;;;0.65;0.63;;;;;;;17.11;77.70;92705.91;4844032;29;20050;-76
2021/08/03 08:08:52;;;;;;;1.20;0.88;;;;;;;17.36;75.58;92701.56;4843350;29;20065;-78
2021/08/03 08:11:18;;;;;;;1.95;0.88;;;;;;;17.41;78.83;92703.22;4844000;29;20065;-78
2021/08/03 08:13:44;;;;;;;0.47;0.47;;;;;;;17.40;76.70;92717.53;4845098;29;20054;-77
2021/08/03 08:16:10;;;;;;;1.90;1.05;;;;;;;17.54;76.65;92718.06;4845193;29;20045;-78
2021/08/03 08:18:36;;;;;;;0.57;0.57;;;;;;;17.10;81.38;92717.59;4844328;29;20053;-78
2021/08/03 08:21:03;;;;;;;0.50;0.50;;;;;;;16.82;82.42;92715.41;4845554;29;20067;-78
2021/08/03 08:23:29;;;;;;;0.60;0.60;;;;;;;17.06;80.13;92721.97;4829361;29;20071;-78
2021/08/03 08:25:55;;;;;;;0.40;0.40;;;;;;;17.09;77.80;92725.84;4842831;29;20042;-78
2021/08/03 08:28:21;;;;;;;0.60;0.60;;;;;;;17.01;75.34;92719.50;4840826;29;20530;-79
2021/08/03 08:30:47;;;;;;;3.40;0.57;;;;;;;16.95;72.76;92723.41;4828846;29;20042;-78
2021/08/03 08:33:12;;;;;;;0.40;0.40;;;;;;;16.78;76.84;92725.03;4829033;29;20064;-78
2021/08/03 08:35:38;;;;;;;0.80;0.80;;;;;;;16.35;83.02;92723.34;4828797;29;20098;-77
2021/08/03 08:38:05;;;;;;;0.57;0.57;;;;;;;16.38;83.55;92727.97;4844991;29;20066;-78
2021/08/03 08:40:32;;;;;;;1.10;0.90;;;;;;;16.46;81.61;92723.78;4842874;29;20062;-79
2021/08/03 08:42:57;;;;;;;1.45;1.13;;;;;;;16.32;82.27;92726.59;4846405;29;20057;-78
2021/08/03 08:45:23;;;;;;;0.80;0.70;;;;;;;16.40;81.37;92723.16;4845368;29;20462;-78
2021/08/03 08:47:50;;;;;;;0.88;0.82;;;;;;;16.70;81.53;92722.44;4845046;29;20100;-78
2021/08/03 08:50:20;;;;;;;0.85;0.82;;;;;;;17.28;78.80;92711.09;4845425;29;20060;-78
2021/08/03 08:52:49;;;;;;;1.17;1.08;;;;;;;17.57;75.87;92711.38;4844402;29;20178;-79
2021/08/03 08:55:16;;;;;;;0.40;0.40;;;;;;;17.28;75.81;92705.78;4845587;29;20117;-78
2021/08/03 08:57:41;;;;;;;1.17;1.08;;;;;;;17.16;75.07;92702.31;4845562;29;20053;-78
2021/08/03 09:00:09;;;;;;;0.45;0.45;;;;;;;17.14;77.26;92707.91;4844355;29;20049;-78
2021/08/03 09:02:51;;;;;;;0.75;0.73;;;;;;;16.67;74.32;92705.34;4845245;29;20269;-78
2021/08/03 09:05:25;;;;;;;0.90;0.88;;;;;;;16.42;80.22;92710.41;4829858;29;20513;-78
2021/08/03 09:07:54;;;;;;;1.45;1.35;;;;;;;16.29;82.88;92707.97;4844729;29;20034;-78
2021/08/03 09:10:32;;;;;;;1.08;0.80;;;;;;;16.24;81.15;92701.00;4829220;29;20056;-78
2021/08/03 09:13:04;;;;;;;1.88;1.23;;;;;;;16.27;82.02;92708.28;4827872;29;20050;-78
2021/08/03 09:15:31;;;;;;;1.45;1.30;;;;;;;16.11;83.76;92707.25;4828472;29;20054;-78
2021/08/03 09:18:17;;;;;;;1.10;1.00;;;;;;;16.19;83.44;92703.81;4843929;29;20058;-78
2021/08/03 09:20:45;;;;;;;0.70;0.70;;;;;;;16.22;82.01;92703.19;4827088;29;20628;-79
2021/08/03 09:23:11;;;;;;;0.55;0.50;;;;;;;16.32;79.73;92713.38;4827621;29;20539;-78
2021/08/03 09:25:38;;;;;;;0.52;0.52;;;;;;;16.37;79.69;92710.59;4844044;29;20458;-78
2021/08/03 09:28:08;;;;;;;1.15;1.05;;;;;;;16.32;75.51;92708.09;4844015;29;20553;-78
2021/08/03 09:30:38;;;;;;;1.27;1.17;;;;;;;16.44;76.74;92708.22;4827151;29;20136;-78
2021/08/03 09:33:05;;;;;;;0.40;0.40;;;;;;;16.53;74.43;92713.50;4827026;29;20481;-78
2021/08/03 09:35:32;;;;;;;1.00;0.90;;;;;;;16.29;78.36;92716.66;4836226;29;20115;-79
2021/08/03 09:37:58;;;;;;;2.05;0.88;;;;;;;16.20;82.91;92710.63;4824611;29;20050;-78
2021/08/03 09:40:30;;;;;;;0.77;0.77;;;;;;;16.36;83.44;92700.34;4833752;29;20064;-78
2021/08/03 09:43:01;;;;;;;1.65;1.38;;;;;;;16.51;82.04;92699.81;4836700;29;20455;-79
2021/08/03 09:45:33;;;;;;;2.45;1.17;;;;;;;16.57;80.70;92693.28;4850842;29;20049;-78
2021/08/03 09:48:11;;;;;;;0.98;0.88;;;;;;;16.65;79.23;92696.94;4861550;29;20049;-78
2021/08/03 09:50:57;;;;;;;1.10;0.65;;;;;;;16.58;73.15;92694.81;4810255;29;20093;-79
2021/08/03 09:53:39;;;;;;;0.93;0.70;;;;;;;16.63;80.38;92691.97;4809957;29;20042;-77
2021/08/03 09:56:06;;;;;;;1.75;1.65;;;;;;;16.76;78.64;92695.50;4809568;29;20054;-79
2021/08/03 09:58:32;;;;;;;0.70;0.57;;;;;;;16.91;73.08;92696.06;4831339;29;20038;-78
2021/08/03 10:01:24;;;;;;;2.05;1.17;;;;;;;16.99;72.05;92703.19;4828274;29;20057;-79
2021/08/03 10:03:54;;;;;;;1.08;0.80;;;;;;;16.85;72.41;92706.84;4844485;29;20048;-78
2021/08/03 10:06:21;;;;;;;2.10;1.33;;;;;;;16.58;78.94;92713.31;4844151;29;20038;-78
2021/08/03 10:08:48;;;;;;;1.65;1.20;;;;;;;16.73;73.68;92705.91;4843576;29;20041;-78
2021/08/03 10:11:15;;;;;;;0.50;0.50;;;;;;;16.91;73.60;92706.63;4845315;29;20060;-78
2021/08/03 10:13:42;;;;;;;0.55;0.55;;;;;;;16.96;72.63;92706.47;4844764;29;20060;-79
2021/08/03 10:16:08;;;;;;;0.55;0.55;;;;;;;16.94;71.72;92706.03;4844441;29;20095;-78
2021/08/03 10:18:38;;;;;;;0.80;0.80;;;;;;;17.06;72.90;92709.50;4843642;29;20137;-78
2021/08/03 10:21:06;;;;;;;1.23;0.93;;;;;;;16.94;71.62;92713.94;4827904;29;20057;-79
2021/08/03 10:23:35;;;;;;;0.60;0.60;;;;;;;17.21;71.12;92715.34;4813005;29;20042;-78
2021/08/03 10:26:03;;;;;;;1.45;1.05;;;;;;;17.40;68.84;92706.97;4827276;29;20125;-78
2021/08/03 10:28:30;;;;;;;2.85;1.10;;;;;;;17.45;66.74;92706.75;4828426;29;20053;-78
2021/08/03 10:30:56;;;;;;;1.48;1.38;;;;;;;17.47;69.40;92704.56;4836451;29;20050;-78
2021/08/03 10:33:40;;;;;;;1.40;0.70;;;;;;;17.51;68.55;92702.06;4844692;29;20045;-79
2021/08/03 10:36:06;;;;;;;0.73;0.52;;;;;;;17.49;66.93;92699.72;4844320;29;20056;-78
2021/08/03 10:38:32;;;;;;;0.57;0.57;;;;;;;17.33;67.42;92702.19;4827642;29;20137;-78
2021/08/03 10:41:03;;;;;;;0.55;0.55;;;;;;;17.60;66.47;92695.59;4841069;29;20107;-79
2021/08/03 10:43:35;;;;;;;0.90;0.73;;;;;;;17.75;65.88;92696.09;4862769;29;20049;-78
2021/08/03 10:46:06;;;;;;;1.17;0.77;;;;;;;17.82;66.61;92691.09;4862239;29;20053;-78
2021/08/03 10:48:38;;;;;;;0.73;0.73;;;;;;;17.84;65.99;92696.84;4862257;29;20073;-79
2021/08/03 10:51:12;;;;;;;0.82;0.65;;;;;;;17.93;65.45;92696.75;4862204;29;20045;-78
2021/08/03 10:53:59;;;;;;;0.90;0.77;;;;;;;17.85;65.69;92698.38;4862604;29;20060;-77
2021/08/03 10:56:25;;;;;;;1.02;0.73;;;;;;;17.96;65.81;92698.75;4864917;29;20052;-77
2021/08/03 10:59:29;;;;;;;1.05;0.80;;;;;;;18.43;65.90;92701.06;4848807;29;20443;-78
2021/08/03 11:01:55;;;;;;;1.75;1.02;;;;;;;18.61;64.67;92693.69;4865672;29;20125;-77
2021/08/03 11:04:46;;;;;;;1.02;0.77;;;;;;;18.69;66.54;92696.22;4865677;29;20140;-77
2021/08/03 11:07:27;;;;;;;2.08;1.02;;;;;;;18.67;65.20;92695.03;4865471;29;20045;-79
2021/08/03 11:10:14;;;;;;;1.85;1.30;;;;;;;18.63;66.17;92699.44;4865803;29;20045;-77
2021/08/03 11:12:46;;;;;;;0.52;0.52;;;;;;;18.98;65.83;92689.19;4865726;29;20033;-79
2021/08/03 11:15:21;;;;;;;0.73;0.73;;;;;;;19.17;64.73;92687.84;4863572;29;20139;-78
2021/08/03 11:17:55;;;;;;;0.40;0.40;;;;;;;18.96;65.97;92688.75;4866065;29;20046;-79
2021/08/03 11:20:41;;;;;;;1.38;0.95;;;;;;;19.22;66.24;92688.38;4848219;29;20480;-77
2021/08/03 11:23:48;;;;;;;1.85;0.80;;;;;;;19.41;67.34;92681.69;4865040;29;20091;-77
2021/08/03 11:26:19;;;;;;;1.67;0.88;;;;;;;19.09;68.35;92676.22;4859216;29;20048;-79
2021/08/03 11:28:57;;;;;;;0.88;0.63;;;;;;;18.42;69.15;92676.44;4865918;29;20110;-77
2021/08/03 11:31:38;;;;;;;1.08;0.98;;;;;;;18.31;69.96;92670.03;4847541;29;20124;-79
2021/08/03 11:34:05;;;;;;;1.13;0.90;;;;;;;18.48;69.64;92677.75;4848081;29;20049;-78
2021/08/03 11:36:32;;;;;;;0.73;0.70;;;;;;;18.42;69.20;92671.13;4848116;29;20038;-78
2021/08/03 11:38:57;;;;;;;1.17;0.90;;;;;;;18.59;69.11;92669.38;4848080;29;20144;-75
2021/08/03 11:41:23;;;;;;;0.70;0.68;;;;;;;18.79;68.82;92671.16;4863283;29;20093;-79
2021/08/03 11:43:50;;;;;;;1.95;1.15;;;;;;;18.99;67.96;92666.84;4864809;29;20177;-76
2021/08/03 11:46:26;;;;;;;1.15;1.05;;;;;;;18.95;68.74;92659.91;4863949;29;20053;-79
2021/08/03 11:49:05;;;;;;;0.88;0.75;;;;;;;18.75;69.84;92667.59;4848886;29;20543;-79
2021/08/03 11:51:36;;;;;;;1.00;0.73;;;;;;;18.57;69.16;92660.97;4848120;29;20049;-79
2021/08/03 11:54:18;;;;;;;1.27;0.80;;;;;;;18.37;71.10;92658.09;4847799;29;20088;-79
2021/08/03 11:56:44;;;;;;;2.33;1.03;;;;;;;18.31;69.16;92646.94;4865559;29;20058;-79
2021/08/03 11:59:13;;;;;;;1.00;0.80;;;;;;;18.47;68.85;92652.38;4846316;29;20076;-77
2021/08/03 12:01:50;;;;;;;0.55;0.50;;;;;;;18.55;70.39;92657.88;4844632;29;20049;-79
2021/08/03 12:04:17;;;;;;;2.42;1.58;;;;;;;18.56;69.30;92648.84;4846099;29;20065;-79
2021/08/03 12:06:43;;;;;;;1.92;1.15;;;;;;;18.70;70.59;92643.97;4845974;29;20105;-78
2021/08/03 12:09:10;;;;;;;1.17;1.00;;;;;;;18.90;70.05;92643.09;4829433;29;20058;-77
2021/08/03 12:11:36;;;;;;;1.30;0.98;;;;;;;19.17;68.00;92634.78;4845501;29;20420;-78
2021/08/03 12:14:09;;;;;;;0.70;0.70;;;;;;;18.79;70.14;92636.69;4862436;29;20048;-78
2021/08/03 12:16:35;;;;;;;1.98;1.23;;;;;;;18.41;71.77;92629.06;4864495;29;20041;-76
2021/08/03 12:19:00;;;;;;;1.80;0.90;;;;;;;18.59;71.19;92633.03;4864402;29;20061;-76
2021/08/03 12:21:38;;;;;;;1.83;1.30;;;;;;;18.50;71.40;92627.84;4864323;29;20495;-77
2021/08/03 12:24:07;;;;;;;0.75;0.63;;;;;;;18.63;67.80;92617.25;4864078;29;20094;-78
2021/08/03 12:26:34;;;;;;;1.70;0.65;;;;;;;18.84;69.04;92625.09;4865130;29;20137;-78
2021/08/03 12:28:59;;;;;;;1.08;0.80;;;;;;;19.00;69.18;92622.53;4847996;29;20377;-79
2021/08/03 12:31:32;;;;;;;1.02;0.93;;;;;;;19.30;65.30;92623.78;4847243;29;20060;-77
2021/08/03 12:34:14;;;;;;;1.15;1.05;;;;;;;19.09;63.69;92623.16;4864861;29;20045;-78
2021/08/03 12:36:54;;;;;;;1.42;1.17;;;;;;;19.26;64.38;92628.22;4864290;29;20415;-77
2021/08/03 12:39:22;;;;;;;1.88;1.17;;;;;;;19.52;63.74;92619.03;4860958;29;20154;-77
2021/08/03 12:42:10;;;;;;;2.47;1.58;;;;;;;19.63;66.19;92614.03;4863573;29;20057;-79
2021/08/03 12:44:40;;;;;;;1.08;0.98;;;;;;;19.83;65.01;92602.44;4859590;29;20141;-78
2021/08/03 12:47:12;;;;;;;1.30;0.80;;;;;;;19.78;64.56;92607.25;4843768;29;20060;-79
2021/08/03 12:49:41;;;;;;;1.05;0.85;;;;;;;19.61;63.22;92603.75;4845066;29;20411;-78
2021/08/03 12:52:24;;;;;;;1.33;0.93;;;;;;;19.77;62.26;92593.22;4861833;29;20089;-78
2021/08/03 12:55:00;;;;;;;1.67;1.38;;;;;;;19.77;63.60;92590.56;4862526;29;20182;-79
2021/08/03 12:57:46;;;;;;;1.65;1.33;;;;;;;19.81;63.28;92591.38;4863239;29;20084;-78
2021/08/03 13:00:30;;;;;;;3.20;1.85;;;;;;;19.53;65.99;92597.47;4863207;29;20565;-78
2021/08/03 13:02:57;;;;;;;0.57;0.57;;;;;;;19.60;65.41;92594.25;4877656;29;20045;-79
2021/08/03 13:05:23;;;;;;;1.40;1.00;;;;;;;19.74;67.98;92583.25;4881936;29;20316;-79
2021/08/03 13:07:48;;;;;;;1.48;1.10;;;;;;;19.80;66.31;92583.78;4857730;29;20137;-79
2021/08/03 13:10:14;;;;;;;1.70;1.50;;;;;;;20.02;65.38;92587.72;4862866;29;20089;-78
2021/08/03 13:12:40;;;;;;;6.15;2.78;;;;;;;19.98;64.40;92581.56;4862329;29;20488;-78
2021/08/03 13:15:06;;;;;;;2.97;1.38;;;;;;;19.95;63.57;92581.13;4846314;29;20053;-76
2021/08/03 13:17:32;;;;;;;1.55;0.90;;;;;;;19.44;66.90;92582.81;4846492;29;20516;-78
2021/08/03 13:19:58;;;;;;;5.22;1.70;;;;;;;19.56;65.42;92580.84;4830696;29;20064;-77
2021/08/03 13:22:23;;;;;;;1.33;1.23;;;;;;;19.61;66.42;92569.25;4845340;29;20041;-78
2021/08/03 13:24:49;;;;;;;2.67;1.40;;;;;;;19.78;66.01;92565.53;4863111;29;20054;-78
2021/08/03 13:27:14;;;;;;;3.45;1.75;;;;;;;19.99;63.08;92570.59;4862733;29;20056;-77
2021/08/03 13:29:40;;;;;;;2.15;1.58;;;;;;;19.91;64.99;92568.88;4862704;29;20046;-78
2021/08/03 13:32:06;;;;;;;1.58;1.20;;;;;;;20.05;64.49;92568.47;4843930;29;20053;-76
2021/08/03 13:34:32;;;;;;;4.25;2.25;;;;;;;20.17;65.02;92569.16;4862608;29;20518;-79
2021/08/03 13:36:58;;;;;;;2.30;1.42;;;;;;;20.24;63.18;92567.75;4862225;29;20045;-78
2021/08/03 13:39:23;;;;;;;1.98;1.23;;;;;;;20.23;62.54;92560.91;4860011;29;20072;-78
2021/08/03 13:41:50;;;;;;;2.75;1.85;;;;;;;20.30;62.62;92574.38;4814805;29;20057;-78
2021/08/03 13:44:17;;;;;;;2.28;1.33;;;;;;;20.36;63.08;92570.34;4862933;29;20142;-79
2021/08/03 13:46:43;;;;;;;1.90;1.50;;;;;;;20.04;63.34;92588.94;4862864;29;20049;-78
2021/08/03 13:49:09;;;;;;;1.83;1.13;;;;;;;20.34;64.07;92577.88;4862297;29;20695;-78
2021/08/03 13:51:35;;;;;;;2.58;1.83;;;;;;;20.44;63.14;92569.38;4862406;29;20064;-79
2021/08/03 13:54:01;;;;;;;2.30;1.33;;;;;;;20.45;63.71;92570.94;4845517;29;20421;-78
2021/08/03 13:56:27;;;;;;;3.00;1.80;;;;;;;20.48;64.04;92567.56;4861294;29;20067;-76
2021/08/03 13:58:53;;;;;;;1.88;1.27;;;;;;;20.40;63.94;92576.50;4845587;29;20049;-78
2021/08/03 14:01:19;;;;;;;2.88;1.75;;;;;;;20.10;65.38;92579.59;4854492;29;20557;-77
2021/08/03 14:03:44;;;;;;;3.08;1.73;;;;;;;19.72;64.81;92582.81;4862369;29;20110;-77
2021/08/03 14:06:10;;;;;;;2.92;1.60;;;;;;;19.69;65.84;92581.59;4861127;29;20049;-77
2021/08/03 14:08:36;;;;;;;2.70;1.50;;;;;;;19.66;65.11;92576.97;4862370;29;20124;-79
2021/08/03 14:11:02;;;;;;;2.67;1.63;;;;;;;19.50;66.95;92582.22;4845128;29;20034;-78
2021/08/03 14:13:28;;;;;;;1.45;1.00;;;;;;;19.30;68.35;92577.91;4845077;29;20167;-78
2021/08/03 14:15:55;;;;;;;12.45;1.92;;;;;;;19.22;69.27;92579.56;4845381;29;20061;-79
2021/08/03 14:18:22;;;;;;;1.95;1.23;;;;;;;19.16;70.21;92574.84;4862783;29;20061;-78
2021/08/03 14:20:50;;;;;;;1.25;1.00;;;;;;;19.01;71.56;92581.63;4862873;29;20056;-78
2021/08/03 14:23:16;;;;;;;2.78;1.80;;;;;;;18.80;72.86;92569.31;4862463;29;20047;-78
2021/08/03 14:25:42;;;;;;;1.05;0.90;;;;;;;18.81;73.18;92575.38;4862543;29;20238;-79
2021/08/03 14:28:08;;;;;;;1.73;1.05;;;;;;;18.81;74.38;92581.44;4863172;29;20056;-79
2021/08/03 14:30:34;;;;;;;2.40;1.35;;;;;;;18.74;72.61;92570.63;4862904;29;20049;-79
2021/08/03 14:33:00;;;;;;;3.08;1.25;;;;;;;18.69;73.85;92576.91;4866905;29;20045;-79